Time;durP1;ratioP1;P1;durP2;ratioP2;P2;SDS_P1;SDS_P2;PMS_P1;PMS_P2;Temp;Humidity;BMP_temperature;BMP_pressure;BME280_temperature;BME280_humidity;BME280_pressure;Samples;Min_cycle;Max_cycle;Signal;HPM_P1;HPM_P2
2021/03/26 13:23:37;;;;;;;6.08;3.72;;;;;;;12.74;31.47;100924.79;1909830;74;27849;-44
2021/03/26 13:26:08;;;;;;;6.17;3.58;;;;;;;12.49;32.90;100931.23;1893894;75;21541;-42
2021/03/26 13:28:41;;;;;;;5.90;3.00;;;;;;;12.35;32.83;100926.71;1816589;78;21620;-47
2021/03/26 13:31:20;;;;;;;3.80;2.37;;;;;;;12.22;32.25;100928.36;1752032;78;21200;-40
2021/03/26 13:33:55;;;;;;;4.30;2.70;;;;;;;12.16;32.50;100925.58;1824065;77;21162;-42
2021/03/26 13:36:37;;;;;;;5.62;3.27;;;;;;;12.08;33.16;100926.50;1780595;78;21164;-42
2021/03/26 13:39:18;;;;;;;7.40;4.80;;;;;;;12.01;32.86;100921.97;1826994;77;21465;-45
2021/03/26 13:42:02;;;;;;;5.78;2.87;;;;;;;12.01;33.91;100915.77;1812023;78;21189;-43
2021/03/26 13:44:36;;;;;;;4.42;3.33;;;;;;;12.03;33.30;100908.05;1816222;78;21146;-45
2021/03/26 13:47:21;;;;;;;4.30;2.62;;;;;;;12.04;33.28;100912.92;1805658;78;21154;-41
2021/03/26 13:50:04;;;;;;;5.58;2.60;;;;;;;12.04;33.90;100911.58;1800160;78;21661;-41
2021/03/26 13:52:58;;;;;;;3.50;2.27;;;;;;;12.07;33.64;100907.39;1799806;78;23266;-40
2021/03/26 13:55:33;;;;;;;4.53;2.70;;;;;;;12.03;33.50;100908.53;1780419;78;21143;-43
2021/03/26 13:58:36;;;;;;;6.55;3.10;;;;;;;12.04;34.01;100907.57;1780752;79;21154;-40
2021/03/26 14:01:09;;;;;;;4.12;2.98;;;;;;;11.98;34.71;100902.11;1778245;78;21149;-43
2021/03/26 14:03:52;;;;;;;4.78;3.12;;;;;;;11.90;34.39;100904.38;1749947;80;21097;-40
2021/03/26 14:06:27;;;;;;;4.58;3.00;;;;;;;11.83;35.03;100897.62;1782081;78;21121;-41
2021/03/26 14:09:08;;;;;;;5.33;3.33;;;;;;;11.76;35.18;100897.58;1778062;79;21152;-43
2021/03/26 14:12:10;;;;;;;;;;;;;;;11.74;35.42;100905.66;1708579;82;21149;-42
2021/03/26 14:14:54;;;;;;;6.00;3.30;;;;;;;11.76;35.75;100905.59;1706479;82;20171;-40
2021/03/26 14:18:10;;;;;;;5.17;3.40;;;;;;;11.83;34.96;100905.16;1768517;78;23078;-43
2021/03/26 14:20:46;;;;;;;3.92;2.80;;;;;;;11.77;35.62;100909.52;1737964;80;21130;-40
2021/03/26 14:23:20;;;;;;;5.28;3.45;;;;;;;11.73;35.84;100906.62;1733107;80;21632;-41
2021/03/26 14:26:16;;;;;;;4.45;2.58;;;;;;;11.69;36.47;100911.30;1740718;80;21181;-43
2021/03/26 14:28:56;;;;;;;7.17;2.85;;;;;;;11.64;36.40;100906.69;1740278;81;21585;-44
2021/03/26 14:31:30;;;;;;;4.78;2.42;;;;;;;11.60;36.13;100911.80;1739822;80;21142;-42
2021/03/26 14:34:10;;;;;;;6.45;3.12;;;;;;;11.61;36.00;100910.84;1737801;80;21739;-43
2021/03/26 14:37:00;;;;;;;8.20;2.90;;;;;;;11.66;35.69;100906.58;1739465;80;21150;-41
2021/03/26 14:39:34;;;;;;;4.45;2.75;;;;;;;11.68;35.89;100916.23;1741241;80;21150;-45
2021/03/26 14:42:26;;;;;;;4.42;2.55;;;;;;;11.67;36.10;100909.66;1731363;80;21921;-42
2021/03/26 14:44:59;;;;;;;4.67;2.90;;;;;;;11.61;36.38;100912.66;1730592;80;21166;-43
2021/03/26 14:47:36;;;;;;;4.33;3.47;;;;;;;11.57;36.84;100913.80;1728059;81;21161;-42
2021/03/26 14:50:22;;;;;;;5.50;2.30;;;;;;;11.53;36.96;100909.08;1683191;81;21185;-44
2021/03/26 14:52:57;;;;;;;4.22;2.20;;;;;;;11.52;36.71;100912.70;1730931;81;21660;-40
2021/03/26 14:55:45;;;;;;;5.97;2.67;;;;;;;11.51;36.94;100910.11;1736777;80;21165;-41
2021/03/26 14:58:38;;;;;;;5.45;2.92;;;;;;;11.46;37.39;100915.70;1730989;81;21197;-42
2021/03/26 15:01:26;;;;;;;5.35;3.08;;;;;;;11.36;37.70;100911.34;1729394;81;21169;-41
2021/03/26 15:04:24;;;;;;;6.15;2.40;;;;;;;11.28;38.25;100912.72;1736228;80;21134;-41
2021/03/26 15:07:09;;;;;;;5.65;2.58;;;;;;;11.18;38.59;100916.35;1734796;80;21125;-41
2021/03/26 15:09:45;;;;;;;4.72;2.70;;;;;;;11.09;38.79;100912.84;1739907;80;21150;-44
2021/03/26 15:12:39;;;;;;;4.67;3.47;;;;;;;11.00;38.16;100924.40;1738173;80;21127;-46
2021/03/26 15:15:40;;;;;;;9.35;4.20;;;;;;;10.98;38.23;100922.28;1738097;80;21122;-41
2021/03/26 15:18:28;;;;;;;6.22;4.25;;;;;;;10.97;38.47;100919.23;1748346;80;21859;-42
2021/03/26 15:21:39;;;;;;;8.65;4.45;;;;;;;10.93;38.68;100921.66;1739053;81;21178;-42
2021/03/26 15:24:39;;;;;;;7.28;4.92;;;;;;;10.90;38.67;100927.17;1643161;85;21180;-42
2021/03/26 15:27:18;;;;;;;3.80;3.00;;;;;;;10.84;39.54;100931.51;1652073;86;21161;-44
2021/03/26 15:30:10;;;;;;;11.75;3.17;;;;;;;10.77;39.91;100931.43;1648650;84;21588;-43
2021/03/26 15:33:35;;;;;;;5.90;3.30;;;;;;;10.73;40.28;100931.19;1793912;78;23078;-42
2021/03/26 15:36:09;;;;;;;6.50;2.67;;;;;;;10.65;40.92;100940.06;1773310;79;21131;-41
2021/03/26 15:38:53;;;;;;;5.28;3.30;;;;;;;10.58;41.08;100939.50;1761778;79;21148;-42
2021/03/26 15:42:09;;;;;;;8.00;2.87;;;;;;;10.54;41.24;100945.95;1769035;78;21146;-41
2021/03/26 15:45:27;;;;;;;6.42;3.00;;;;;;;10.51;41.62;100946.98;1831813;76;22354;-42
2021/03/26 15:48:00;;;;;;;5.70;2.35;;;;;;;10.43;41.73;100947.81;1835080;76;21137;-41
2021/03/26 15:50:33;;;;;;;3.75;2.58;;;;;;;10.41;41.94;100952.38;1840424;76;21172;-41
2021/03/26 15:53:21;;;;;;;5.03;2.67;;;;;;;10.37;41.98;100947.66;1815926;77;22251;-39
2021/03/26 15:56:30;;;;;;;4.92;2.27;;;;;;;10.35;41.79;100952.20;1843018;76;21133;-45
2021/03/26 15:59:24;;;;;;;3.90;2.40;;;;;;;10.33;41.91;100959.44;1837190;75;21143;-42
2021/03/26 16:02:16;;;;;;;4.85;2.50;;;;;;;10.31;41.75;100955.98;1839566;76;21089;-40
2021/03/26 16:05:07;;;;;;;4.92;2.90;;;;;;;10.28;41.79;100960.13;1843755;76;21137;-42
2021/03/26 16:08:20;;;;;;;4.07;2.60;;;;;;;10.25;42.41;100961.56;1841849;76;21129;-42
2021/03/26 16:11:10;;;;;;;6.83;3.33;;;;;;;10.19;42.80;100966.73;1841090;76;21117;-43
2021/03/26 16:14:09;;;;;;;3.65;2.70;;;;;;;10.15;42.89;100966.51;1797997;78;21667;-43
2021/03/26 16:16:56;;;;;;;7.05;3.33;;;;;;;10.13;42.84;100964.83;1765937;80;21145;-44
2021/03/26 16:20:03;;;;;;;5.97;3.33;;;;;;;10.10;43.04;100967.65;1756157;80;21161;-42
2021/03/26 16:23:01;;;;;;;7.70;3.47;;;;;;;10.08;42.82;100967.74;1748628;80;21552;-44
2021/03/26 16:26:00;;;;;;;14.47;6.05;;;;;;;10.09;42.11;100971.27;1727227;81;21161;-41
2021/03/26 16:29:22;;;;;;;7.78;4.80;;;;;;;10.11;42.04;100974.72;1758166;79;21176;-39
2021/03/26 16:32:26;;;;;;;7.12;4.03;;;;;;;10.10;42.44;100976.50;1765572;79;21164;-41
2021/03/26 16:35:37;;;;;;;7.65;5.00;;;;;;;10.08;42.31;100985.06;1759028;79;21128;-41
2021/03/26 16:38:50;;;;;;;11.12;4.92;;;;;;;10.08;42.17;100977.06;1736956;81;21125;-38
2021/03/26 16:42:00;;;;;;;8.30;4.92;;;;;;;10.08;41.93;100985.06;1764337;79;21176;-44
2021/03/26 16:44:58;;;;;;;10.18;5.65;;;;;;;10.10;41.63;100986.30;1758148;79;21472;-41
2021/03/26 16:47:46;;;;;;;12.15;5.75;;;;;;;10.12;41.63;100990.62;1764057;80;21239;-41
2021/03/26 16:50:35;;;;;;;10.08;4.97;;;;;;;10.14;41.63;100984.75;1693336;83;21193;-43
2021/03/26 16:53:18;;;;;;;9.35;4.70;;;;;;;10.14;41.96;100991.89;1698873;83;21183;-46
2021/03/26 16:55:55;;;;;;;8.20;4.08;;;;;;;10.14;41.89;101000.73;1640180;86;21138;-40
2021/03/26 16:58:46;;;;;;;6.50;4.55;;;;;;;10.17;41.67;100995.25;1800646;78;22922;-42
2021/03/26 17:01:50;;;;;;;6.87;4.12;;;;;;;10.12;41.79;101005.75;1774618;79;21126;-45
2021/03/26 17:04:56;;;;;;;9.73;5.00;;;;;;;10.13;41.75;101010.13;1777072;79;21122;-40
2021/03/26 17:07:58;;;;;;;7.25;4.00;;;;;;;10.12;41.80;101012.41;1774744;79;21145;-43
2021/03/26 17:11:04;;;;;;;8.08;5.22;;;;;;;10.16;41.84;101004.20;1763869;78;23829;-41
2021/03/26 17:13:54;;;;;;;11.68;4.75;;;;;;;10.11;42.01;101016.03;1740923;80;21110;-41
2021/03/26 17:16:57;;;;;;;6.85;4.40;;;;;;;10.07;42.28;101013.11;1735107;80;21199;-46
2021/03/26 17:20:17;;;;;;;9.08;4.67;;;;;;;10.04;42.49;101020.78;1658697;84;21181;-43
2021/03/26 17:23:14;;;;;;;7.65;5.33;;;;;;;10.01;42.78;101024.92;1657151;85;21314;-44
2021/03/26 17:26:02;;;;;;;10.13;5.12;;;;;;;9.97;42.91;101027.33;1661770;84;21174;-43
2021/03/26 17:29:18;;;;;;;9.98;5.45;;;;;;;9.97;43.17;101032.18;1661571;85;21199;-42
2021/03/26 17:32:23;;;;;;;7.42;5.05;;;;;;;9.96;43.28;101034.47;1660151;84;21147;-42
2021/03/26 17:35:16;;;;;;;15.43;5.97;;;;;;;9.94;43.27;101031.00;1657651;84;21207;-44
2021/03/26 17:37:58;;;;;;;7.85;5.97;;;;;;;9.93;43.52;101029.77;1652911;84;21197;-44
2021/03/26 17:40:55;;;;;;;10.30;6.72;;;;;;;9.93;43.71;101035.09;1800475;77;22811;-43
2021/03/26 17:44:09;;;;;;;14.78;5.62;;;;;;;9.87;43.95;101040.69;1773670;78;21129;-45
2021/03/26 17:46:45;;;;;;;12.98;6.75;;;;;;;9.85;44.25;101050.54;1775888;78;21137;-42
2021/03/26 17:49:50;;;;;;;12.00;6.62;;;;;;;9.81;44.53;101052.97;1772970;78;21262;-43
2021/03/26 17:52:49;;;;;;;9.60;7.35;;;;;;;9.78;44.82;101053.09;1772492;78;21145;-42
2021/03/26 17:55:45;;;;;;;12.05;7.47;;;;;;;9.75;45.06;101060.31;1773453;78;21152;-42
2021/03/26 17:58:40;;;;;;;12.55;8.83;;;;;;;9.71;45.49;101056.05;1774831;78;21137;-42
2021/03/26 18:01:43;;;;;;;12.45;8.88;;;;;;;9.67;45.92;101053.59;1772758;78;21596;-43
2021/03/26 18:04:52;;;;;;;11.00;8.18;;;;;;;9.63;46.15;101059.53;1775102;78;21665;-43
2021/03/26 18:07:54;;;;;;;15.98;9.20;;;;;;;9.62;46.61;101060.92;1775798;78;21129;-42
2021/03/26 18:10:36;;;;;;;20.88;10.68;;;;;;;9.57;46.90;101063.79;1720332;81;21571;-42
2021/03/26 18:13:41;;;;;;;14.65;9.33;;;;;;;9.60;47.83;101064.11;1806631;77;22972;-43
2021/03/26 18:16:48;;;;;;;14.23;9.95;;;;;;;9.53;47.91;101069.73;1776994;78;21160;-42
2021/03/26 18:19:49;;;;;;;12.40;8.98;;;;;;;9.51;48.00;101066.73;1756349;80;21148;-41
2021/03/26 18:22:51;;;;;;;12.85;9.70;;;;;;;9.47;48.32;101073.12;1757787;80;21154;-40
2021/03/26 18:25:27;;;;;;;12.90;9.23;;;;;;;9.41;48.70;101077.41;1758192;80;21155;-41
2021/03/26 18:28:39;;;;;;;12.18;8.73;;;;;;;9.35;48.66;101083.88;1756462;80;21161;-41
2021/03/26 18:31:34;;;;;;;12.07;9.78;;;;;;;9.34;48.83;101083.92;1757546;80;21142;-41
2021/03/26 18:34:28;;;;;;;14.07;10.18;;;;;;;9.31;49.17;101080.45;1756315;80;21156;-42
2021/03/26 18:37:31;;;;;;;13.83;10.30;;;;;;;9.28;49.63;101087.25;1756052;80;21153;-44
2021/03/26 18:40:10;;;;;;;16.82;10.43;;;;;;;9.24;50.40;101088.78;1755681;80;21145;-41
2021/03/26 18:43:10;;;;;;;12.78;10.15;;;;;;;9.09;51.67;101087.16;1758593;80;21128;-42
2021/03/26 18:46:14;;;;;;;15.05;11.05;;;;;;;9.09;51.67;101087.16;1749200;80;21621;-45
2021/03/26 18:49:25;;;;;;;15.45;11.30;;;;;;;9.06;52.03;101092.62;1755772;80;21139;-45
2021/03/26 18:52:04;;;;;;;13.48;10.85;;;;;;;9.02;52.90;101091.48;1758909;80;21843;-48
2021/03/26 18:55:03;;;;;;;13.43;9.35;;;;;;;8.94;53.38;101096.27;1753851;80;21161;-42
2021/03/26 18:57:51;;;;;;;16.27;11.28;;;;;;;8.88;53.44;101096.92;1755251;80;21157;-39
2021/03/26 19:00:48;;;;;;;14.50;11.08;;;;;;;8.84;53.83;101105.98;1761221;80;21600;-40
2021/03/26 19:03:43;;;;;;;16.37;11.28;;;;;;;8.75;53.59;101102.36;1757024;80;21561;-40
2021/03/26 19:06:27;;;;;;;19.20;12.15;;;;;;;8.75;53.59;101102.36;1693856;82;21209;-40
2021/03/26 19:09:15;;;;;;;15.88;12.47;;;;;;;8.73;53.58;101102.88;1695555;82;21221;-39
2021/03/26 19:12:02;;;;;;;19.77;12.50;;;;;;;8.71;54.28;101103.88;1683381;83;21629;-41
2021/03/26 19:15:09;;;;;;;17.40;13.30;;;;;;;8.70;54.23;101104.81;1666255;84;21142;-39
2021/03/26 19:17:39;;;;;;;22.13;14.10;;;;;;;8.64;54.37;101105.47;1663748;84;21208;-40
2021/03/26 19:20:19;;;;;;;17.10;12.65;;;;;;;8.64;54.34;101109.89;1667716;84;21156;-42
2021/03/26 19:23:24;;;;;;;19.67;11.88;;;;;;;8.64;54.24;101113.88;1664799;85;21162;-43
2021/03/26 19:25:57;;;;;;;17.77;11.43;;;;;;;8.64;54.24;101113.88;1663746;84;21166;-43
2021/03/26 19:28:42;;;;;;;17.10;12.13;;;;;;;8.66;53.95;101115.55;1663838;84;21178;-43
2021/03/26 19:31:56;;;;;;;15.63;11.80;;;;;;;8.75;53.86;101116.98;1794134;78;23015;-43
2021/03/26 19:34:50;;;;;;;16.60;11.83;;;;;;;8.74;53.82;101116.57;1766478;79;21159;-44
2021/03/26 19:37:48;;;;;;;17.82;12.28;;;;;;;8.74;53.83;101117.89;1771581;80;21156;-44
2021/03/26 19:40:59;;;;;;;15.68;11.93;;;;;;;8.74;53.78;101117.89;1765805;79;21190;-43
2021/03/26 19:43:44;;;;;;;18.17;12.90;;;;;;;8.73;53.86;101120.17;1747879;80;21147;-39
2021/03/26 19:46:23;;;;;;;17.57;13.50;;;;;;;8.75;53.94;101124.97;1723572;82;21299;-40
2021/03/26 19:49:11;;;;;;;17.80;12.93;;;;;;;8.75;53.94;101124.97;1745652;80;21114;-40
2021/03/26 19:52:00;;;;;;;23.62;14.80;;;;;;;8.74;54.45;101120.55;1722330;82;21177;-41
2021/03/26 19:54:55;;;;;;;17.23;13.18;;;;;;;8.80;54.33;101127.44;1801549;78;22621;-41
2021/03/26 19:57:42;;;;;;;21.97;14.33;;;;;;;8.75;54.45;101126.30;1777965;80;21169;-41
2021/03/26 20:00:39;;;;;;;21.60;14.80;;;;;;;8.75;54.53;101125.44;1778169;79;21644;-40
2021/03/26 20:03:22;;;;;;;21.85;16.60;;;;;;;8.75;54.64;101128.09;1778092;80;21160;-46
2021/03/26 20:06:15;;;;;;;20.45;15.88;;;;;;;8.72;55.04;101126.42;1776125;79;21178;-42
2021/03/26 20:09:09;;;;;;;26.77;16.80;;;;;;;8.69;55.14;101136.30;1776656;80;21613;-41
2021/03/26 20:11:47;;;;;;;22.40;16.25;;;;;;;8.68;55.36;101134.59;1677746;84;21197;-40
2021/03/26 20:14:39;;;;;;;21.65;15.72;;;;;;;8.66;55.40;101138.15;1682319;84;21194;-40
2021/03/26 20:17:18;;;;;;;23.10;17.42;;;;;;;8.68;55.56;101132.78;1667108;83;21535;-40
2021/03/26 20:20:22;;;;;;;24.18;17.75;;;;;;;8.70;55.77;101146.03;1651265;85;21633;-40
2021/03/26 20:23:39;;;;;;;25.77;17.45;;;;;;;8.71;55.76;101133.98;1761078;79;22796;-39
2021/03/26 20:26:25;;;;;;;28.80;18.82;;;;;;;8.64;55.76;101131.16;1740435;80;21130;-40
2021/03/26 20:29:22;;;;;;;24.55;17.40;;;;;;;8.67;55.99;101139.05;1732660;80;21157;-43
2021/03/26 20:32:20;;;;;;;23.75;16.52;;;;;;;8.66;56.08;101136.83;1733322;82;21122;-40
2021/03/26 20:35:28;;;;;;;23.12;18.05;;;;;;;8.68;55.97;101143.89;1736381;80;21134;-40
2021/03/26 20:38:04;;;;;;;24.77;18.35;;;;;;;8.61;56.89;101142.79;1732092;81;21133;-42
2021/03/26 20:41:04;;;;;;;22.52;18.30;;;;;;;8.61;56.89;101142.79;1732708;80;21550;-40
2021/03/26 20:43:43;;;;;;;22.40;17.90;;;;;;;8.57;57.46;101138.54;1735967;80;21146;-42
2021/03/26 20:46:18;;;;;;;25.12;17.80;;;;;;;8.54;57.78;101141.77;1730041;80;21139;-40
2021/03/26 20:49:08;;;;;;;25.10;19.05;;;;;;;8.48;58.03;101132.25;1738983;80;21149;-43
2021/03/26 20:51:56;;;;;;;25.12;19.60;;;;;;;8.44;58.17;101132.84;1736700;80;21173;-42
2021/03/26 20:54:54;;;;;;;24.80;18.35;;;;;;;8.44;58.24;101134.17;1735735;80;21536;-44
2021/03/26 20:57:39;;;;;;;25.97;20.00;;;;;;;8.43;58.25;101136.41;1735224;80;21145;-41
2021/03/26 21:00:38;;;;;;;27.87;21.17;;;;;;;8.42;58.29;101132.50;1733621;80;21133;-49
2021/03/26 21:03:31;;;;;;;27.13;19.60;;;;;;;8.40;58.25;101140.52;1649970;85;22224;-44
2021/03/26 21:06:23;;;;;;;28.80;20.90;;;;;;;8.37;58.34;101130.45;1620093;86;21169;-42
2021/03/26 21:09:19;;;;;;;27.22;20.12;;;;;;;8.35;58.06;101138.48;1653333;85;21157;-42
2021/03/26 21:12:18;;;;;;;28.07;21.25;;;;;;;8.35;58.06;101138.48;1650533;85;21769;-43
2021/03/26 21:15:11;;;;;;;28.95;21.70;;;;;;;8.35;57.98;101134.96;1629242;85;21169;-44
2021/03/26 21:18:09;;;;;;;23.67;19.02;;;;;;;8.34;58.02;101133.20;1617150;86;21184;-43
2021/03/26 21:20:55;;;;;;;28.45;20.32;;;;;;;8.35;58.18;101133.62;1624947;86;21189;-43
2021/03/26 21:23:23;;;;;;;31.85;21.05;;;;;;;8.35;58.71;101135.82;1628057;87;21594;-40
2021/03/26 21:26:03;;;;;;;28.10;21.62;;;;;;;8.35;58.80;101135.82;1626962;86;21189;-42
2021/03/26 21:28:54;;;;;;;28.47;20.50;;;;;;;8.33;59.13;101133.68;1604855;86;21208;-45
2021/03/26 21:31:48;;;;;;;26.77;19.90;;;;;;;8.32;59.33;101135.95;1629454;86;21684;-47
2021/03/26 21:34:50;;;;;;;28.05;20.27;;;;;;;8.32;59.37;101133.29;1626979;86;21202;-42
2021/03/26 21:37:28;;;;;;;29.20;20.65;;;;;;;8.32;59.41;101133.29;1625037;86;21193;-42
2021/03/26 21:40:01;;;;;;;27.50;20.72;;;;;;;8.31;59.42;101138.18;1666580;82;21157;-45
2021/03/26 21:42:57;;;;;;;26.60;20.35;;;;;;;8.31;59.53;101136.85;1702163;82;21179;-44
2021/03/26 21:45:33;;;;;;;28.62;20.20;;;;;;;8.32;59.53;101141.73;1705907;82;21106;-42
2021/03/26 21:48:32;;;;;;;32.60;22.30;;;;;;;8.31;59.42;101141.30;1703640;82;21215;-42
2021/03/26 21:51:41;;;;;;;26.65;19.98;;;;;;;8.29;59.29;101140.49;1706872;82;21132;-45
2021/03/26 21:54:27;;;;;;;;;;;;;;;8.27;59.22;101137.91;1706151;82;21141;-42
2021/03/26 21:57:23;;;;;;;25.80;19.85;;;;;;;8.28;59.21;101137.45;1709857;82;20190;-45
2021/03/26 22:00:18;;;;;;;29.02;22.02;;;;;;;8.25;59.29;101135.77;1704838;82;21506;-45
2021/03/26 22:03:39;;;;;;;31.05;22.27;;;;;;;8.24;59.46;101143.36;1638439;86;21174;-43
2021/03/26 22:06:56;;;;;;;31.82;27.32;;;;;;;8.24;59.56;101143.36;1783700;78;28577;-43
2021/03/26 22:09:50;;;;;;;31.12;22.87;;;;;;;8.20;59.48;101145.72;1776215;79;21139;-44
2021/03/26 22:13:04;;;;;;;29.92;23.32;;;;;;;8.24;59.36;101143.36;1761660;80;21669;-43
2021/03/26 22:15:51;;;;;;;29.20;22.48;;;;;;;8.24;59.36;101143.36;1762812;80;21121;-40
2021/03/26 22:18:36;;;;;;;31.15;22.62;;;;;;;8.21;59.51;101143.02;1761454;80;21185;-43
2021/03/26 22:21:36;;;;;;;34.15;23.38;;;;;;;8.17;59.98;101135.21;1760419;80;21146;-41
2021/03/26 22:24:12;;;;;;;30.68;23.30;;;;;;;8.16;60.15;101140.09;1666903;84;21312;-44
2021/03/26 22:26:46;;;;;;;32.50;21.90;;;;;;;8.15;60.38;101143.69;1664130;84;21184;-45
2021/03/26 22:29:26;;;;;;;28.55;21.95;;;;;;;8.15;60.53;101141.03;1664817;84;21216;-43
2021/03/26 22:32:20;;;;;;;29.92;22.42;;;;;;;8.14;60.56;101148.58;1673056;84;21596;-40
2021/03/26 22:35:12;;;;;;;26.97;20.77;;;;;;;8.15;60.60;101145.02;1671834;84;21179;-44
2021/03/26 22:38:29;;;;;;;28.02;21.12;;;;;;;8.15;60.53;101145.02;1659350;84;21268;-43
2021/03/26 22:41:10;;;;;;;28.40;20.43;;;;;;;8.16;60.27;101148.93;1674512;84;21649;-44
2021/03/26 22:43:45;;;;;;;27.55;21.00;;;;;;;8.21;59.89;101154.97;1670049;84;21597;-45
2021/03/26 22:46:20;;;;;;;24.67;19.10;;;;;;;8.25;59.57;101153.05;1665395;84;21319;-43
2021/03/26 22:49:12;;;;;;;28.73;21.40;;;;;;;8.27;59.41;101157.84;1665901;84;21648;-45
2021/03/26 22:51:43;;;;;;;;;;;;;;;8.31;59.20;101159.91;1669761;84;21197;-45
2021/03/26 22:54:46;;;;;;;24.63;18.85;;;;;;;8.32;59.04;101157.20;1652734;84;20242;-44
2021/03/26 22:57:28;;;;;;;22.35;18.10;;;;;;;8.36;58.96;101153.48;1804384;79;22938;-42
2021/03/26 23:00:26;;;;;;;27.32;19.27;;;;;;;8.34;58.91;101158.45;1772310;79;21526;-42
2021/03/26 23:03:38;;;;;;;25.48;18.87;;;;;;;8.37;58.76;101159.69;1778237;79;21171;-43
2021/03/26 23:06:49;;;;;;;23.55;16.95;;;;;;;8.37;58.76;101159.69;1776398;79;21138;-44
2021/03/26 23:09:25;;;;;;;25.43;19.90;;;;;;;8.38;58.69;101166.26;1773280;79;21533;-41
2021/03/26 23:12:02;;;;;;;30.43;20.75;;;;;;;8.39;58.59;101168.04;1772405;80;21504;-41
2021/03/26 23:14:45;;;;;;;33.28;21.27;;;;;;;8.39;58.59;101168.04;1724727;81;21105;-43
2021/03/26 23:17:42;;;;;;;24.57;20.55;;;;;;;8.40;58.45;101164.91;1716982;82;21617;-42
2021/03/26 23:20:33;;;;;;;31.25;20.92;;;;;;;8.40;58.45;101164.91;1744287;81;21138;-41
2021/03/26 23:23:19;;;;;;;27.85;20.30;;;;;;;8.39;58.34;101163.13;1712200;82;21162;-44
2021/03/26 23:26:06;;;;;;;28.67;20.72;;;;;;;8.38;58.37;101165.39;1729507;81;21731;-42
2021/03/26 23:28:48;;;;;;;26.48;20.12;;;;;;;8.37;58.28;101165.87;1724081;82;21584;-47
2021/03/26 23:31:31;;;;;;;26.73;19.92;;;;;;;8.37;58.24;101167.20;1742678;80;21160;-45
2021/03/26 23:34:31;;;;;;;30.82;21.80;;;;;;;8.35;58.21;101166.38;1719757;83;21177;-44
2021/03/26 23:37:18;;;;;;;28.83;21.93;;;;;;;8.35;58.22;101159.73;1620172;87;21169;-45
2021/03/26 23:39:51;;;;;;;25.95;21.30;;;;;;;8.34;58.19;101159.34;1619413;87;21248;-45
2021/03/26 23:42:47;;;;;;;29.05;20.57;;;;;;;8.35;58.06;101157.55;1788316;78;22774;-41
2021/03/26 23:45:20;;;;;;;30.10;22.10;;;;;;;8.26;58.12;101160.08;1773260;79;21115;-46
2021/03/26 23:47:49;;;;;;;30.70;21.10;;;;;;;8.18;58.28;101164.83;1763731;79;21152;-46
2021/03/26 23:50:25;;;;;;;30.10;22.00;;;;;;;8.14;58.54;101161.44;1764610;79;21644;-42
2021/03/26 23:52:56;;;;;;;31.40;22.48;;;;;;;8.11;58.78;101161.52;1757282;79;21149;-46
2021/03/26 23:55:32;;;;;;;33.98;24.18;;;;;;;8.08;59.14;101159.45;1776989;79;21141;-42
2021/03/26 23:58:13;;;;;;;36.58;25.20;;;;;;;8.01;59.96;101165.45;1778006;79;21168;-44
